Time;durP1;ratioP1;P1;durP2;ratioP2;P2;SDS_P1;SDS_P2;PMS_P1;PMS_P2;Temp;Humidity;BMP_temperature;BMP_pressure;BME280_temperature;BME280_humidity;BME280_pressure;Samples;Min_cycle;Max_cycle;Signal;HPM_P1;HPM_P2
2022/03/20 00:00:11;;;;;;;14.70;7.73;;;;;;;-0.72;47.91;96736.44;5015710;28;20201;-75
2022/03/20 00:02:39;;;;;;;12.47;7.20;;;;;;;-0.83;47.54;96721.00;5014772;28;20306;-76
2022/03/20 00:05:10;;;;;;;12.37;6.87;;;;;;;-0.87;48.03;96722.13;5019976;28;20202;-75
2022/03/20 00:07:38;;;;;;;12.30;6.87;;;;;;;-0.77;48.09;96738.47;5014915;28;20220;-76
2022/03/20 00:10:08;;;;;;;11.87;6.57;;;;;;;-0.76;47.96;96730.75;5014389;28;20214;-76
2022/03/20 00:12:37;;;;;;;11.50;6.90;;;;;;;-0.88;47.72;96746.00;5013644;28;20704;-77
2022/03/20 00:15:05;;;;;;;10.93;6.90;;;;;;;-0.90;47.58;96737.63;5016977;28;20214;-76
2022/03/20 00:17:35;;;;;;;12.30;7.27;;;;;;;-0.95;48.00;96740.44;5017482;28;20282;-76
2022/03/20 00:20:06;;;;;;;11.47;7.00;;;;;;;-1.01;47.78;96748.47;5014372;28;20203;-76
2022/03/20 00:22:35;;;;;;;11.27;6.97;;;;;;;-0.99;48.44;96746.69;5015937;28;20223;-77
2022/03/20 00:25:04;;;;;;;13.57;7.10;;;;;;;-0.96;48.32;96745.66;5015955;28;20199;-76
2022/03/20 00:27:33;;;;;;;13.43;7.23;;;;;;;-0.88;47.97;96741.72;5017327;28;20205;-77
2022/03/20 00:30:00;;;;;;;13.00;7.73;;;;;;;-0.88;47.83;96748.53;5013545;28;20219;-79
2022/03/20 00:32:28;;;;;;;15.73;7.53;;;;;;;-0.87;47.94;96742.53;5017223;28;20199;-78
2022/03/20 00:34:59;;;;;;;14.77;7.50;;;;;;;-0.90;47.51;96741.00;5016689;28;20590;-79
2022/03/20 00:37:28;;;;;;;11.20;7.17;;;;;;;-0.93;48.13;96745.47;5014365;28;20191;-79
2022/03/20 00:39:58;;;;;;;15.23;7.07;;;;;;;-0.97;47.76;96737.19;5016830;28;20195;-78
2022/03/20 00:42:27;;;;;;;12.30;7.07;;;;;;;-0.98;48.20;96745.75;5016917;28;20305;-79
2022/03/20 00:44:55;;;;;;;11.93;7.20;;;;;;;-0.94;47.84;96741.28;5017437;28;20195;-76
2022/03/20 00:47:22;;;;;;;13.53;7.30;;;;;;;-0.93;47.58;96733.53;5020113;28;20253;-77
2022/03/20 00:49:50;;;;;;;12.90;7.43;;;;;;;-0.92;47.39;96739.44;5015018;28;20705;-75
2022/03/20 00:52:19;;;;;;;13.17;7.57;;;;;;;-0.92;47.56;96740.25;5019800;28;20274;-75
2022/03/20 00:54:47;;;;;;;12.63;6.97;;;;;;;-0.93;47.52;96736.09;5015688;28;20711;-76
2022/03/20 00:57:17;;;;;;;14.87;7.50;;;;;;;-0.90;47.75;96735.06;5016106;28;20239;-76
2022/03/20 00:59:45;;;;;;;11.70;7.30;;;;;;;-0.95;48.09;96734.56;5015543;28;20865;-76
2022/03/20 01:02:15;;;;;;;14.40;7.80;;;;;;;-1.02;48.24;96726.47;5014139;28;20219;-76
2022/03/20 01:04:43;;;;;;;14.03;7.30;;;;;;;-1.03;48.37;96734.19;5014017;28;20559;-78
2022/03/20 01:07:11;;;;;;;13.27;7.63;;;;;;;-0.99;48.54;96733.09;5016530;28;20201;-75
2022/03/20 01:09:40;;;;;;;14.57;8.40;;;;;;;-0.97;48.66;96734.63;5019953;28;20658;-75
2022/03/20 01:12:09;;;;;;;14.33;8.57;;;;;;;-1.07;48.96;96735.31;5016179;28;20206;-74
2022/03/20 01:14:39;;;;;;;18.93;10.43;;;;;;;-1.03;48.95;96734.19;5017277;28;20203;-75
2022/03/20 01:17:08;;;;;;;22.07;11.43;;;;;;;-0.99;48.93;96739.03;5014732;28;20202;-74
2022/03/20 01:19:37;;;;;;;25.47;12.23;;;;;;;-0.98;49.48;96734.75;5019987;28;20698;-75
2022/03/20 01:22:06;;;;;;;19.13;11.23;;;;;;;-0.96;49.44;96722.69;5018587;28;20639;-75
2022/03/20 01:24:33;;;;;;;23.53;11.20;;;;;;;-0.97;49.93;96729.53;5022443;28;20195;-76
2022/03/20 01:27:03;;;;;;;23.30;11.50;;;;;;;-1.02;50.03;96723.09;5019246;28;20206;-75
2022/03/20 01:29:32;;;;;;;21.17;12.00;;;;;;;-1.12;50.52;96727.94;5014759;28;20740;-76
2022/03/20 01:32:01;;;;;;;22.70;11.47;;;;;;;-1.26;50.74;96721.16;5020755;28;20199;-76
2022/03/20 01:34:30;;;;;;;20.50;11.77;;;;;;;-1.39;51.19;96717.72;5021521;28;20634;-75
2022/03/20 01:36:59;;;;;;;23.83;11.97;;;;;;;-1.39;51.26;96724.56;5022507;28;20237;-76
2022/03/20 01:39:27;;;;;;;19.30;11.63;;;;;;;-1.42;51.35;96719.63;5020160;28;20214;-75
2022/03/20 01:41:57;;;;;;;21.67;11.37;;;;;;;-1.53;51.85;96722.81;5018784;28;20265;-76
2022/03/20 01:44:32;;;;;;;23.60;12.23;;;;;;;-1.47;51.63;96716.56;5018053;28;20219;-75
2022/03/20 01:47:02;;;;;;;25.53;11.93;;;;;;;-1.46;51.61;96723.28;5017189;28;20213;-75
2022/03/20 01:49:30;;;;;;;24.30;12.97;;;;;;;-1.58;51.83;96727.38;5019018;28;20696;-76
2022/03/20 01:52:13;;;;;;;27.50;13.50;;;;;;;-1.60;51.98;96736.84;5020381;28;20199;-76
2022/03/20 01:54:44;;;;;;;28.20;14.37;;;;;;;-1.81;52.61;96733.03;5016629;28;20198;-77
2022/03/20 01:57:16;;;;;;;31.20;15.13;;;;;;;-1.86;53.20;96735.03;5018204;28;20731;-77
2022/03/20 01:59:45;;;;;;;33.67;16.97;;;;;;;-1.90;53.48;96738.66;5021772;28;20191;-77
2022/03/20 02:02:16;;;;;;;35.67;18.07;;;;;;;-2.03;53.61;96737.75;5020314;28;20280;-77
2022/03/20 02:04:45;;;;;;;34.87;16.73;;;;;;;-2.24;54.24;96737.28;5017287;28;20202;-77
2022/03/20 02:07:16;;;;;;;37.37;16.27;;;;;;;-2.29;54.37;96724.00;5020100;28;20265;-77
2022/03/20 02:09:45;;;;;;;29.67;14.20;;;;;;;-2.36;54.79;96730.34;5017896;28;20183;-76
2022/03/20 02:12:14;;;;;;;27.00;14.47;;;;;;;-2.31;54.74;96734.25;5018837;28;20218;-75
2022/03/20 02:14:43;;;;;;;26.07;14.13;;;;;;;-2.30;55.00;96738.47;5020309;28;20195;-75
2022/03/20 02:17:12;;;;;;;27.20;14.67;;;;;;;-2.25;54.98;96732.28;5020481;28;20615;-75
2022/03/20 02:19:46;;;;;;;26.33;13.73;;;;;;;-2.30;54.81;96735.91;5021485;28;20325;-75
2022/03/20 02:22:17;;;;;;;31.50;14.97;;;;;;;-2.26;55.10;96735.72;5021155;28;20195;-76
2022/03/20 02:24:48;;;;;;;30.97;14.07;;;;;;;-2.30;54.91;96738.47;5019898;28;20307;-75
2022/03/20 02:27:19;;;;;;;28.80;13.77;;;;;;;-2.35;54.62;96719.25;5019681;28;20234;-74
2022/03/20 02:29:51;;;;;;;27.87;14.27;;;;;;;-2.31;55.55;96731.72;5019499;28;20294;-76
2022/03/20 02:32:21;;;;;;;26.50;14.40;;;;;;;-2.29;55.99;96726.56;5017471;28;20207;-75
2022/03/20 02:34:49;;;;;;;27.30;14.60;;;;;;;-2.20;56.02;96735.38;5017836;28;20198;-75
2022/03/20 02:37:21;;;;;;;37.60;15.33;;;;;;;-2.32;56.25;96735.19;5023760;28;20828;-74
2022/03/20 02:39:50;;;;;;;36.93;18.43;;;;;;;-2.24;56.42;96729.63;5021721;28;20191;-75
2022/03/20 02:42:19;;;;;;;37.03;17.87;;;;;;;-2.21;55.89;96734.56;5022457;28;20602;-76
2022/03/20 02:44:58;;;;;;;35.67;17.67;;;;;;;-2.26;56.25;96728.91;5017894;28;20968;-75
2022/03/20 02:47:29;;;;;;;39.57;19.70;;;;;;;-2.32;56.93;96725.00;5023219;28;20198;-77
2022/03/20 02:49:59;;;;;;;47.77;20.87;;;;;;;-2.23;56.99;96726.19;5015021;28;20199;-76
2022/03/20 02:52:32;;;;;;;45.50;20.53;;;;;;;-2.22;56.87;96727.81;5016450;28;20227;-78
2022/03/20 02:55:03;;;;;;;36.80;18.13;;;;;;;-2.28;56.86;96721.34;5020492;28;20246;-77
2022/03/20 02:57:32;;;;;;;38.07;18.27;;;;;;;-2.23;56.63;96728.75;5015946;28;20281;-77
2022/03/20 03:00:09;;;;;;;32.70;16.27;;;;;;;-2.23;56.33;96727.91;5024428;28;20296;-76
2022/03/20 03:02:42;;;;;;;31.63;15.07;;;;;;;-2.26;56.35;96731.47;5018601;28;20195;-76
2022/03/20 03:05:11;;;;;;;33.70;15.17;;;;;;;-2.30;56.30;96733.38;5019767;28;20195;-76
2022/03/20 03:13:14;;;;;;;34.87;15.37;;;;;;;-2.38;56.72;96725.34;5022692;28;20193;-77
2022/03/20 03:15:42;;;;;;;29.50;14.90;;;;;;;-2.42;57.28;96728.97;5015873;28;20289;-76
2022/03/20 03:18:10;;;;;;;23.87;13.80;;;;;;;-2.46;56.82;96714.78;5020664;28;20230;-76
2022/03/20 03:20:40;;;;;;;24.70;12.90;;;;;;;-2.41;56.96;96722.16;5019857;28;20690;-77
2022/03/20 03:23:09;;;;;;;22.83;12.87;;;;;;;-2.37;56.76;96734.59;5018438;28;20318;-76
2022/03/20 03:25:39;;;;;;;24.07;12.87;;;;;;;-2.38;56.87;96722.81;5019220;28;20195;-77
2022/03/20 03:28:09;;;;;;;24.83;12.93;;;;;;;-2.45;57.08;96736.78;5019749;28;20245;-76
2022/03/20 03:30:38;;;;;;;27.17;13.57;;;;;;;-2.49;56.48;96735.34;5017451;28;20201;-76
2022/03/20 03:33:06;;;;;;;25.17;13.53;;;;;;;-2.52;57.26;96729.59;5015096;28;20199;-76
2022/03/20 03:35:42;;;;;;;26.03;13.43;;;;;;;-2.55;57.18;96738.22;5020895;28;20322;-79
2022/03/20 03:38:12;;;;;;;25.00;13.40;;;;;;;-2.52;56.96;96732.13;5019877;28;20191;-76
2022/03/20 03:40:41;;;;;;;28.33;14.03;;;;;;;-2.50;56.76;96733.69;5020459;28;20199;-77
2022/03/20 03:43:09;;;;;;;38.60;17.50;;;;;;;-2.53;56.79;96741.50;5017503;28;20227;-76
2022/03/20 03:45:38;;;;;;;40.60;19.93;;;;;;;-2.60;57.24;96747.03;5014569;28;20202;-77
2022/03/20 03:48:07;;;;;;;31.67;16.93;;;;;;;-2.65;57.18;96746.44;5022067;28;20206;-76
2022/03/20 03:50:36;;;;;;;27.77;15.00;;;;;;;-2.87;57.36;96739.19;5018563;28;20214;-76
2022/03/20 03:53:04;;;;;;;28.87;15.67;;;;;;;-2.81;57.32;96746.47;5017147;28;20207;-76
2022/03/20 03:55:34;;;;;;;35.13;16.83;;;;;;;-2.82;57.81;96751.66;5019136;28;20203;-76
2022/03/20 03:58:03;;;;;;;32.43;17.17;;;;;;;-2.91;58.35;96745.34;5022656;28;20202;-76
2022/03/20 04:00:32;;;;;;;32.00;17.60;;;;;;;-2.91;58.56;96746.16;5019482;28;20269;-78
2022/03/20 04:03:00;;;;;;;32.97;17.07;;;;;;;-2.83;58.54;96747.47;5019532;28;20895;-78
2022/03/20 04:05:29;;;;;;;35.13;16.40;;;;;;;-2.79;58.21;96741.28;5020083;28;20195;-77
2022/03/20 04:07:58;;;;;;;33.17;17.80;;;;;;;-2.84;59.00;96740.75;5021014;28;20199;-76
2022/03/20 04:10:26;;;;;;;39.93;18.23;;;;;;;-3.02;59.24;96717.97;5018285;28;20674;-77
2022/03/20 04:12:57;;;;;;;41.27;20.10;;;;;;;-2.91;59.24;96735.16;5018214;28;20282;-76
2022/03/20 04:15:26;;;;;;;36.87;20.00;;;;;;;-2.79;59.15;96738.75;5016100;28;20199;-76
2022/03/20 04:17:58;;;;;;;46.23;20.53;;;;;;;-2.88;59.51;96729.91;5021915;28;20197;-76
2022/03/20 04:20:25;;;;;;;40.27;20.37;;;;;;;-2.83;59.68;96734.75;5019616;28;20237;-77
2022/03/20 04:25:40;;;;;;;52.10;23.03;;;;;;;-2.77;59.05;96739.50;5012522;28;20210;-77
2022/03/20 04:28:10;;;;;;;54.43;23.10;;;;;;;-2.88;59.77;96742.63;5015870;28;20206;-78
2022/03/20 04:30:38;;;;;;;49.60;24.33;;;;;;;-2.94;59.99;96730.25;5020124;28;20207;-77
2022/03/20 04:33:06;;;;;;;45.37;21.97;;;;;;;-2.98;60.26;96738.97;5017980;28;20211;-77
2022/03/20 04:35:34;;;;;;;52.47;25.67;;;;;;;-3.04;60.77;96727.41;5014965;28;20245;-77
2022/03/20 04:38:02;;;;;;;57.93;25.97;;;;;;;-3.08;61.50;96727.66;5018540;28;20281;-77
2022/03/20 04:40:30;;;;;;;50.87;24.87;;;;;;;-3.06;62.06;96744.44;5016722;28;20204;-77
2022/03/20 04:42:58;;;;;;;52.27;22.60;;;;;;;-3.12;61.83;96742.28;5017665;28;21745;-78
2022/03/20 04:45:28;;;;;;;40.33;20.10;;;;;;;-3.11;61.30;96754.06;5013892;28;20702;-77
2022/03/20 04:58:56;;;;;;;122.13;52.83;;;;;;;-2.95;59.95;96743.88;5018437;28;20201;-76
2022/03/20 05:01:26;;;;;;;133.17;55.07;;;;;;;-2.97;60.04;96748.22;5021008;28;20261;-76
2022/03/20 05:03:54;;;;;;;111.33;47.13;;;;;;;-2.94;59.62;96746.31;5020852;28;20218;-77
2022/03/20 05:06:23;;;;;;;90.93;38.73;;;;;;;-2.89;59.32;96751.97;5020155;28;20734;-78
2022/03/20 05:08:51;;;;;;;85.10;36.60;;;;;;;-2.83;58.89;96743.22;5021566;28;20276;-76
2022/03/20 05:14:06;;;;;;;93.00;37.97;;;;;;;-2.82;59.66;96751.66;5021773;28;20202;-76
2022/03/20 05:16:36;;;;;;;82.90;38.47;;;;;;;-2.77;60.27;96753.03;5020483;28;20219;-77
2022/03/20 05:19:03;;;;;;;83.27;37.47;;;;;;;-2.74;59.83;96759.69;5022048;28;20207;-76
2022/03/20 05:21:32;;;;;;;87.67;39.40;;;;;;;-2.76;59.68;96752.13;5026177;28;20253;-76
2022/03/20 05:24:00;;;;;;;85.13;38.80;;;;;;;-2.70;59.64;96753.50;5015377;28;20254;-78
2022/03/20 05:26:28;;;;;;;90.37;40.57;;;;;;;-2.68;59.97;96770.31;5021776;28;20646;-78
2022/03/20 05:28:57;;;;;;;87.07;39.40;;;;;;;-2.61;59.37;96761.47;5022752;28;20744;-77
2022/03/20 05:31:24;;;;;;;87.67;37.57;;;;;;;-2.56;58.65;96772.19;5019942;28;20654;-77
2022/03/20 05:33:54;;;;;;;94.63;38.37;;;;;;;-2.47;58.02;96771.69;5020654;28;20281;-78
2022/03/20 05:36:22;;;;;;;92.17;38.63;;;;;;;-2.47;57.63;96778.50;5018034;28;20205;-77
2022/03/20 05:38:50;;;;;;;90.33;38.77;;;;;;;-2.50;57.83;96776.13;5018193;28;20674;-77
2022/03/20 05:44:03;;;;;;;63.20;27.57;;;;;;;-2.51;57.82;96774.50;5020036;28;20214;-77
2022/03/20 05:46:30;;;;;;;49.67;24.00;;;;;;;-2.43;57.04;96775.72;5016403;28;20653;-77
2022/03/20 05:49:00;;;;;;;47.87;22.50;;;;;;;-2.48;57.01;96787.84;5026416;28;20330;-78
2022/03/20 05:51:30;;;;;;;36.23;20.77;;;;;;;-2.49;56.71;96787.94;5022452;28;20277;-78
2022/03/20 05:53:59;;;;;;;36.17;18.87;;;;;;;-2.54;56.18;96788.19;5017256;28;20206;-75
2022/03/20 05:59:24;;;;;;;21.87;11.50;;;;;;;-2.33;56.09;96796.34;4950348;28;20639;-75
2022/03/20 06:01:52;;;;;;;23.83;12.23;;;;;;;-2.31;55.23;96777.53;5006141;28;20191;-77
2022/03/20 06:04:22;;;;;;;20.67;11.97;;;;;;;-2.20;54.67;96786.31;5019273;28;20230;-75
2022/03/20 06:06:49;;;;;;;20.63;11.83;;;;;;;-2.14;54.55;96786.78;5017700;28;20223;-76
2022/03/20 06:09:18;;;;;;;22.63;11.63;;;;;;;-2.05;54.54;96791.31;5023819;28;20294;-76
2022/03/20 06:11:46;;;;;;;25.77;12.23;;;;;;;-1.99;54.21;96790.19;5021234;28;21171;-76
2022/03/20 06:14:15;;;;;;;20.40;11.33;;;;;;;-1.91;54.06;96793.09;5022747;28;20199;-75
2022/03/20 06:16:45;;;;;;;22.40;12.53;;;;;;;-1.84;54.02;96794.34;5019500;28;20401;-76
2022/03/20 06:19:13;;;;;;;22.00;12.10;;;;;;;-1.84;53.92;96790.09;5019992;28;20203;-76
2022/03/20 06:21:44;;;;;;;19.37;11.37;;;;;;;-1.69;53.96;96802.84;5015935;28;20205;-74
2022/03/20 06:24:13;;;;;;;24.10;11.17;;;;;;;-1.55;53.20;96798.56;5019228;28;20729;-74
2022/03/20 06:26:42;;;;;;;21.77;12.00;;;;;;;-1.56;53.08;96798.69;5019058;28;20201;-74
2022/03/20 06:29:10;;;;;;;28.27;12.53;;;;;;;-1.48;52.99;96801.59;5019966;28;20199;-73
2022/03/20 06:31:38;;;;;;;26.77;12.77;;;;;;;-1.47;52.94;96804.03;5017982;28;20199;-73
2022/03/20 06:34:06;;;;;;;21.93;11.97;;;;;;;-1.38;52.77;96798.38;5020550;28;21300;-74
2022/03/20 06:36:33;;;;;;;21.27;12.20;;;;;;;-1.30;53.62;96806.38;5015369;28;20227;-74
2022/03/20 06:39:03;;;;;;;21.40;12.30;;;;;;;-1.25;53.93;96804.41;5018394;28;20207;-73
2022/03/20 06:41:31;;;;;;;24.17;12.57;;;;;;;-1.11;52.85;96802.72;5018317;28;20635;-74
2022/03/20 06:43:59;;;;;;;20.93;12.57;;;;;;;-1.03;51.90;96801.34;5017937;28;20293;-73
2022/03/20 06:46:27;;;;;;;18.90;10.73;;;;;;;-1.13;51.32;96797.72;5020939;28;20802;-73
2022/03/20 06:48:55;;;;;;;21.47;11.13;;;;;;;-1.11;51.59;96803.56;5019833;28;20202;-74
2022/03/20 06:51:24;;;;;;;20.57;11.00;;;;;;;-0.95;50.88;96801.69;5020351;28;20670;-74
2022/03/20 06:53:52;;;;;;;21.47;9.97;;;;;;;-0.90;50.48;96806.53;5015485;28;20754;-73
2022/03/20 06:56:21;;;;;;;21.37;10.67;;;;;;;-0.87;50.60;96808.88;5022355;28;20289;-73
2022/03/20 06:58:50;;;;;;;23.03;9.80;;;;;;;-0.77;50.86;96797.19;5020952;28;20215;-73
2022/03/20 07:01:17;;;;;;;22.07;10.60;;;;;;;-0.70;50.32;96809.47;5014618;28;20744;-74
2022/03/20 07:03:46;;;;;;;17.23;9.87;;;;;;;-0.57;50.14;96815.44;5014383;28;20658;-73
2022/03/20 07:06:14;;;;;;;22.77;10.97;;;;;;;-0.59;49.03;96813.91;5017226;28;20678;-72
2022/03/20 07:08:42;;;;;;;18.83;9.37;;;;;;;-0.54;48.91;96811.88;5014257;28;20195;-72
2022/03/20 07:11:10;;;;;;;14.20;8.37;;;;;;;-0.53;49.38;96812.69;5021383;28;20192;-71
2022/03/20 07:13:53;;;;;;;15.23;8.37;;;;;;;-0.53;48.83;96818.63;5015798;28;20209;-74
2022/03/20 07:16:28;;;;;;;19.73;8.80;;;;;;;-0.50;48.21;96815.06;5016254;28;20207;-74
2022/03/20 07:18:58;;;;;;;14.03;8.37;;;;;;;-0.39;48.34;96817.75;5016833;28;20199;-74
2022/03/20 07:21:28;;;;;;;14.63;9.17;;;;;;;-0.33;48.00;96814.81;5017993;28;20199;-74
2022/03/20 07:23:57;;;;;;;18.80;9.47;;;;;;;-0.20;48.06;96808.81;5016125;28;20278;-74
2022/03/20 07:31:57;;;;;;;15.57;8.27;;;;;;;-0.18;47.22;96812.09;5019357;28;20840;-72
2022/03/20 07:34:25;;;;;;;21.40;12.30;;;;;;;-0.11;47.33;96800.56;5019263;28;20187;-73
2022/03/20 07:36:53;;;;;;;17.20;8.67;;;;;;;0.06;46.86;96807.09;5019391;28;20196;-73
2022/03/20 07:39:21;;;;;;;13.90;7.90;;;;;;;0.17;47.16;96808.97;5017933;28;20203;-73
2022/03/20 07:41:49;;;;;;;13.93;8.00;;;;;;;0.17;44.98;96803.88;5016012;28;20199;-73
2022/03/20 07:44:18;;;;;;;12.40;7.87;;;;;;;0.18;45.58;96810.59;5019627;28;20221;-74
2022/03/20 07:46:49;;;;;;;15.80;8.63;;;;;;;0.13;45.34;96794.75;5017075;28;20310;-72
2022/03/20 07:49:16;;;;;;;11.60;7.67;;;;;;;0.30;45.05;96809.78;5016833;28;20276;-73
2022/03/20 07:51:46;;;;;;;15.23;8.43;;;;;;;0.39;44.93;96801.50;5018676;28;20764;-73
2022/03/20 07:54:14;;;;;;;15.80;8.40;;;;;;;0.42;44.54;96791.06;5022109;28;20217;-72
2022/03/20 07:56:42;;;;;;;19.57;8.63;;;;;;;0.40;44.53;96788.63;5018112;28;20230;-72
2022/03/20 07:59:11;;;;;;;14.77;8.53;;;;;;;0.51;44.08;96793.84;5019077;28;20193;-72
2022/03/20 08:01:42;;;;;;;15.43;8.47;;;;;;;0.60;44.05;96791.59;5016406;28;20270;-72
2022/03/20 08:04:11;;;;;;;15.13;8.10;;;;;;;0.72;44.16;96789.03;5014414;28;20602;-73
2022/03/20 08:06:40;;;;;;;12.33;8.07;;;;;;;0.77;43.99;96786.97;5017934;28;20203;-74
2022/03/20 08:09:08;;;;;;;15.63;8.33;;;;;;;0.84;43.54;96790.72;5019794;28;20660;-74
2022/03/20 08:11:37;;;;;;;13.50;7.70;;;;;;;0.88;43.32;96784.47;5021225;28;20196;-73
2022/03/20 08:14:08;;;;;;;17.20;8.33;;;;;;;1.00;43.19;96791.31;5016320;28;20216;-73
2022/03/20 08:16:39;;;;;;;15.17;7.87;;;;;;;0.97;43.17;96765.91;5017062;28;20198;-73
2022/03/20 08:19:09;;;;;;;13.23;8.30;;;;;;;1.05;43.12;96762.81;5018319;28;21690;-76
2022/03/20 08:21:38;;;;;;;13.03;7.77;;;;;;;1.13;42.64;96769.03;5020574;28;20256;-81
2022/03/20 08:24:07;;;;;;;14.27;8.30;;;;;;;0.97;42.46;96757.44;5017927;28;20202;-76
2022/03/20 08:26:36;;;;;;;23.93;8.93;;;;;;;1.10;42.65;96756.44;5019186;28;20948;-77
2022/03/20 08:29:04;;;;;;;14.83;7.90;;;;;;;1.24;43.19;96768.25;5017785;28;20273;-76
2022/03/20 08:31:34;;;;;;;14.67;7.87;;;;;;;1.47;42.12;96766.66;5024303;28;20200;-78
2022/03/20 08:34:03;;;;;;;16.07;7.90;;;;;;;1.50;41.81;96756.19;5026250;28;20592;-77
2022/03/20 08:36:34;;;;;;;12.67;7.53;;;;;;;1.51;40.62;96752.69;5020154;28;20256;-76
2022/03/20 08:39:01;;;;;;;14.90;7.77;;;;;;;1.61;40.41;96745.97;5021498;28;20646;-77
2022/03/20 08:41:31;;;;;;;12.50;7.20;;;;;;;1.77;40.49;96750.78;5020371;28;20763;-77
2022/03/20 08:44:00;;;;;;;12.07;7.07;;;;;;;1.84;39.96;96729.75;5020120;28;20272;-76
2022/03/20 08:46:28;;;;;;;11.47;6.63;;;;;;;2.07;39.38;96751.94;5022304;28;20297;-77
2022/03/20 08:48:57;;;;;;;13.87;7.23;;;;;;;2.05;39.93;96738.38;5021017;28;20199;-78
2022/03/20 08:51:26;;;;;;;11.57;7.50;;;;;;;2.25;39.84;96747.97;5024940;28;20201;-76
2022/03/20 08:53:55;;;;;;;15.27;8.10;;;;;;;2.36;39.49;96751.50;5020644;28;20203;-77
2022/03/20 08:56:23;;;;;;;13.60;7.87;;;;;;;2.53;39.25;96746.72;5021782;28;20615;-77
2022/03/20 08:58:51;;;;;;;14.43;7.63;;;;;;;2.77;39.56;96739.69;5020915;28;20198;-77
2022/03/20 09:01:19;;;;;;;11.27;7.00;;;;;;;2.99;39.37;96738.84;5020008;28;20292;-76
2022/03/20 09:03:50;;;;;;;15.73;7.90;;;;;;;3.25;38.21;96740.19;5020918;28;20199;-77
2022/03/20 09:06:19;;;;;;;12.33;7.63;;;;;;;3.44;38.50;96737.78;5025996;28;20210;-76
2022/03/20 09:08:46;;;;;;;11.93;7.80;;;;;;;3.70;38.00;96735.69;5023287;28;20303;-77
2022/03/20 09:11:17;;;;;;;11.53;7.27;;;;;;;3.88;36.95;96733.38;5022543;28;20198;-77
2022/03/20 09:13:46;;;;;;;10.73;6.83;;;;;;;3.99;35.98;96731.56;5020423;28;20231;-76
2022/03/20 09:19:04;;;;;;;11.60;7.17;;;;;;;4.39;37.02;96731.63;5018602;28;20392;-76
2022/03/20 09:21:34;;;;;;;10.53;6.73;;;;;;;4.71;36.66;96736.66;5017409;28;20201;-78
2022/03/20 09:24:03;;;;;;;13.00;6.50;;;;;;;4.98;38.22;96728.34;5019670;28;20195;-77
2022/03/20 09:26:33;;;;;;;12.90;7.40;;;;;;;5.04;34.20;96722.66;5019789;28;20283;-78
2022/03/20 09:29:01;;;;;;;11.20;7.30;;;;;;;5.44;34.75;96731.13;5022440;28;20438;-78
2022/03/20 09:31:31;;;;;;;12.07;6.70;;;;;;;5.77;33.65;96722.19;5020805;28;20208;-78
2022/03/20 09:33:59;;;;;;;11.90;6.77;;;;;;;6.01;33.41;96714.81;5021049;28;20676;-78
2022/03/20 09:36:27;;;;;;;11.03;6.90;;;;;;;6.32;32.28;96701.72;5024468;28;20197;-80
2022/03/20 09:38:55;;;;;;;11.10;6.63;;;;;;;6.40;31.57;96705.22;5023685;28;20209;-77
2022/03/20 09:41:30;;;;;;;14.13;7.43;;;;;;;6.54;30.77;96706.53;5024676;28;20846;-75
2022/03/20 09:44:04;;;;;;;9.80;6.67;;;;;;;6.71;31.24;96695.44;5023743;28;20259;-77
2022/03/20 09:46:33;;;;;;;13.27;6.73;;;;;;;6.87;30.77;96693.03;5022896;28;20218;-80
2022/03/20 09:49:05;;;;;;;10.23;6.13;;;;;;;6.91;29.83;96696.16;5021995;28;20674;-76
2022/03/20 09:51:34;;;;;;;11.93;5.97;;;;;;;7.00;29.97;96690.09;5022792;28;20248;-74
2022/03/20 09:54:03;;;;;;;10.80;6.53;;;;;;;6.98;29.71;96692.03;5023689;28;20684;-75
2022/03/20 09:56:31;;;;;;;14.13;6.00;;;;;;;7.00;30.18;96700.44;5018768;28;20226;-76
2022/03/20 09:59:01;;;;;;;8.77;5.73;;;;;;;7.24;29.06;96693.75;5020947;28;20206;-74
2022/03/20 10:01:29;;;;;;;10.90;6.00;;;;;;;7.42;29.56;96691.16;5021701;28;20870;-74
2022/03/20 10:04:09;;;;;;;7.83;5.60;;;;;;;7.84;28.89;96688.78;5021654;28;20206;-74
2022/03/20 10:06:43;;;;;;;13.70;6.23;;;;;;;7.73;28.23;96689.84;5020549;28;20214;-74
2022/03/20 10:09:15;;;;;;;8.43;5.20;;;;;;;7.80;28.88;96692.63;5020320;28;20655;-75
2022/03/20 10:11:51;;;;;;;10.47;5.80;;;;;;;7.67;28.55;96687.84;5024033;28;20278;-73
2022/03/20 10:14:21;;;;;;;11.67;5.63;;;;;;;7.90;28.17;96680.41;5022154;28;20209;-75
2022/03/20 10:16:54;;;;;;;9.43;5.97;;;;;;;7.72;28.64;96685.63;5018668;28;20192;-75
2022/03/20 10:19:34;;;;;;;8.47;5.27;;;;;;;7.90;27.65;96689.00;5023892;28;20195;-74
2022/03/20 10:22:04;;;;;;;9.43;5.80;;;;;;;7.78;27.43;96673.84;5021189;28;20295;-74
2022/03/20 10:24:36;;;;;;;9.30;5.20;;;;;;;7.94;27.77;96671.38;5022114;28;20604;-73
2022/03/20 10:27:14;;;;;;;8.50;5.70;;;;;;;8.27;27.81;96668.06;5019837;28;20369;-76
2022/03/20 10:29:52;;;;;;;8.03;5.27;;;;;;;8.75;26.56;96664.06;5020294;28;20268;-76
2022/03/20 10:32:22;;;;;;;10.77;5.53;;;;;;;8.66;26.98;96673.56;5019964;28;20198;-76
2022/03/20 10:34:52;;;;;;;12.03;5.13;;;;;;;9.10;26.89;96672.44;5017833;28;20205;-75
2022/03/20 10:37:22;;;;;;;8.77;5.70;;;;;;;9.06;25.93;96668.53;5015475;28;20199;-75
2022/03/20 10:39:51;;;;;;;8.07;5.30;;;;;;;9.75;25.95;96676.91;5021246;28;20195;-73
2022/03/20 10:42:19;;;;;;;8.10;5.33;;;;;;;9.97;25.45;96658.84;5021326;28;20276;-72
2022/03/20 10:44:47;;;;;;;10.33;5.60;;;;;;;9.69;25.48;96650.63;5019133;28;20275;-73
2022/03/20 10:47:18;;;;;;;9.40;5.67;;;;;;;10.16;25.73;96653.31;5019269;28;20677;-73
2022/03/20 10:49:52;;;;;;;11.07;5.57;;;;;;;10.60;25.76;96652.88;5021649;28;20199;-73
2022/03/20 10:52:22;;;;;;;8.50;5.60;;;;;;;10.81;24.67;96658.31;5018415;28;20226;-73
2022/03/20 10:54:53;;;;;;;8.90;5.60;;;;;;;10.54;24.84;96662.16;5021248;28;20187;-71
2022/03/20 10:57:22;;;;;;;10.17;5.60;;;;;;;10.50;24.61;96652.28;5022234;28;20231;-73
2022/03/20 10:59:58;;;;;;;7.70;5.13;;;;;;;10.18;24.64;96650.56;5018196;28;20281;-73
2022/03/20 11:02:28;;;;;;;8.87;5.40;;;;;;;10.69;24.58;96650.09;5020190;28;20285;-73
2022/03/20 11:04:56;;;;;;;9.20;5.30;;;;;;;11.07;24.39;96645.84;5016601;28;20202;-71
2022/03/20 11:07:26;;;;;;;5.83;4.70;;;;;;;10.97;24.65;96640.03;5021235;28;20199;-72
2022/03/20 11:09:55;;;;;;;10.67;5.67;;;;;;;11.11;25.02;96636.69;5016466;28;20256;-72
2022/03/20 11:12:26;;;;;;;7.27;5.37;;;;;;;10.89;24.94;96642.66;5020910;28;20725;-75
2022/03/20 11:14:55;;;;;;;8.53;5.70;;;;;;;10.84;24.15;96634.56;5016537;28;20330;-74
2022/03/20 11:17:26;;;;;;;10.77;5.47;;;;;;;11.04;25.39;96635.78;5022377;28;20203;-72
2022/03/20 11:19:58;;;;;;;7.33;5.27;;;;;;;11.60;23.43;96621.53;5018215;28;20737;-72
2022/03/20 11:22:27;;;;;;;7.80;5.33;;;;;;;11.39;23.96;96627.41;5019994;28;20210;-73
2022/03/20 11:24:57;;;;;;;10.60;5.57;;;;;;;11.87;23.43;96614.97;5019661;28;20198;-75
2022/03/20 11:27:30;;;;;;;7.17;5.47;;;;;;;11.80;23.29;96616.69;5021562;28;20222;-72
2022/03/20 11:30:02;;;;;;;11.37;5.60;;;;;;;11.38;23.53;96615.38;5020230;28;20203;-73
2022/03/20 11:32:31;;;;;;;13.50;5.83;;;;;;;11.28;23.95;96611.38;5019400;28;20246;-72
2022/03/20 11:35:03;;;;;;;9.23;5.73;;;;;;;11.93;23.46;96606.47;5020048;28;20207;-71
2022/03/20 11:37:45;;;;;;;8.20;4.93;;;;;;;12.20;22.90;96618.91;5020861;28;20222;-70
2022/03/20 11:40:17;;;;;;;7.23;4.70;;;;;;;12.28;22.82;96618.81;5021103;28;20218;-71
2022/03/20 11:42:45;;;;;;;7.87;4.63;;;;;;;12.39;22.84;96620.16;5020564;28;20249;-72
2022/03/20 11:45:18;;;;;;;9.37;5.50;;;;;;;11.86;22.67;96600.34;5022126;28;20199;-72
2022/03/20 11:47:49;;;;;;;9.27;5.30;;;;;;;12.34;22.86;96612.06;5022045;28;20202;-72
2022/03/20 11:50:21;;;;;;;7.17;5.10;;;;;;;13.02;22.04;96602.06;5018229;28;20207;-72
2022/03/20 11:53:00;;;;;;;15.13;5.80;;;;;;;13.30;22.36;96596.97;5019237;28;20202;-72
2022/03/20 11:55:32;;;;;;;10.13;4.77;;;;;;;13.77;21.89;96600.75;5020893;28;20229;-74
2022/03/20 11:58:01;;;;;;;6.40;4.83;;;;;;;13.63;21.66;96603.28;5019420;28;20210;-72
2022/03/20 12:00:31;;;;;;;7.17;5.20;;;;;;;13.90;21.82;96599.06;5015453;28;20670;-72
2022/03/20 12:03:25;;;;;;;8.63;5.60;;;;;;;13.40;21.50;96599.25;5018956;28;20726;-72
2022/03/20 12:06:14;;;;;;;8.07;5.30;;;;;;;14.00;21.45;96593.47;5016392;28;20215;-72
2022/03/20 12:09:01;;;;;;;11.47;5.50;;;;;;;13.75;21.08;96593.13;5018527;28;20203;-72
2022/03/20 12:11:41;;;;;;;8.97;5.40;;;;;;;13.55;21.17;96592.16;5019390;28;20213;-71